WetterOnline ( https://www.wetteronline.de )

Wetter aktuell Ceska Kamenice

Aktuelles Wetter: Milesovka (836m)

6-stündlich | Neueste Meldungen
Ortszeit Temperatur Wetter
Do, 02.07. 14:00 22.8° C wolkig
Do, 02.07. 8:00 16.8° C leicht bewölkt
Do, 02.07. 2:00 17.4° C leicht bewölkt
Mi, 01.07. 20:00 24.9° C fast wolkenlos
Mi, 01.07. 14:00 25.7° C leicht bewölkt
Mi, 01.07. 8:00 13.5° C fast wolkenlos
Mi, 01.07. 2:00 13.0° C fast wolkenlos
Di, 30.06. 20:00 18.2° C leicht bewölkt
Ortszeit Temperatur Wetter
Do, 02.07. 15:00 22.5° C leicht bewölkt
Do, 02.07. 14:00 22.8° C wolkig
Do, 02.07. 13:00 20.3° C leicht bewölkt
Do, 02.07. 12:00 17.8° C Gewitter
Do, 02.07. 11:00 19.9° C wolkig
Do, 02.07. 10:00 19.0° C wolkig
Ortszeit Relative Feuchte Sichtweite
Do, 02.07. 14:00 73% 50 km
Do, 02.07. 8:00 84% 60 km
Do, 02.07. 2:00 80% 60 km
Mi, 01.07. 20:00 55% 70 km
Mi, 01.07. 14:00 57% 70 km
Mi, 01.07. 8:00 85% 50 km
Mi, 01.07. 2:00 79% 70 km
Di, 30.06. 20:00 59% 70 km
Ortszeit Relative Feuchte Sichtweite
Do, 02.07. 15:00 67% 50 km
Do, 02.07. 14:00 73% 50 km
Do, 02.07. 13:00 85% 50 km
Do, 02.07. 12:00 79% 20 km
Do, 02.07. 11:00 69% 50 km
Do, 02.07. 10:00 78% 50 km
Ortszeit Niederschlagsmenge Niederschlagsart
Do, 02.07. 14:00 0.9 l/m2 in 6 Std. Gewitter, Regen
Do, 02.07. 8:00 0.0 l/m2 in 12 Std. -
Do, 02.07. 2:00 0.0 l/m2 in 6 Std. -
Mi, 01.07. 20:00 0.0 l/m2 in 12 Std. -
Mi, 01.07. 14:00 0.0 l/m2 in 6 Std. -
Mi, 01.07. 8:00 0.0 l/m2 in 12 Std. -
Mi, 01.07. 2:00 0.0 l/m2 in 6 Std. -
Di, 30.06. 20:00 0.0 l/m2 in 12 Std. -
Ortszeit Niederschlagsmenge Niederschlagsart
Do, 02.07. 15:00 keine Meldung -
Do, 02.07. 14:00 keine Meldung -
Do, 02.07. 13:00 keine Meldung -
Do, 02.07. 12:00 keine Meldung -
Do, 02.07. 11:00 keine Meldung -
Do, 02.07. 10:00 keine Meldung -
Ortszeit Stärke Spitze Richtung
km/h Bft. km/h Grad Sektor
Do, 02.07. 14:00 14 3 - 260° W
Do, 02.07. 8:00 14 3 50 280° W
Do, 02.07. 2:00 32 5 50 320° NW
Mi, 01.07. 20:00 25 4 54 220° SW
Mi, 01.07. 14:00 32 5 50 220° SW
Mi, 01.07. 8:00 22 4 40 240° SW
Mi, 01.07. 2:00 22 4 58 260° W
Di, 30.06. 20:00 32 5 58 240° SW
Ortszeit Stärke Spitze Richtung
km/h Bft. km/h Grad Sektor
Do, 02.07. 15:00 7 2 - 240° SW
Do, 02.07. 14:00 14 3 - 260° W
Do, 02.07. 13:00 11 2 - 280° W
Do, 02.07. 12:00 22 4 - 300° NW
Do, 02.07. 11:00 18 3 - 280° W
Do, 02.07. 10:00 11 2 - 310° NW
Ortszeit Untergrenze Bedeckung Gattung
total tief tief mittel hoch
Do, 02.07. 14:00 990 m 7/8 6/8 Cb As -
Do, 02.07. 8:00 480 m 3/8 2/8 Cu As Ci
Do, 02.07. 2:00 900 m 4/8 1/8 Cu - Ci
Mi, 01.07. 20:00 1200 m 2/8 1/8 Cu Ac Ci
Mi, 01.07. 14:00 1080 m 3/8 2/8 Cu Ac Ci
Mi, 01.07. 8:00 3300 m 1/8 1/8 - Ac Ci
Mi, 01.07. 2:00 3300 m 1/8 1/8 - Ac -
Di, 30.06. 20:00 1200 m 2/8 2/8 Cu - Ci
Ortszeit Bedeckungsgrad in Achtel und Wolkenuntergrenze
Do, 02.07. 15:00 3(1200m)
Do, 02.07. 14:00 1(990m) 5(1200m)
Do, 02.07. 13:00 4
Do, 02.07. 12:00 6(1800m)
Do, 02.07. 11:00 5(600m)
Do, 02.07. 10:00 5(600m)
Ortszeit Stationsdruck (hPa) Tendenz (hPa in 3 Std.)
Do, 02.07. 14:00 917 + 0,2
Do, 02.07. 8:00 917 + 0,9
Do, 02.07. 2:00 915 + 0,5
Mi, 01.07. 20:00 915 - 0,6
Mi, 01.07. 14:00 916 - 0,1
Mi, 01.07. 8:00 917 + 0,5
Mi, 01.07. 2:00 916 0,0
Di, 30.06. 20:00 916 - 0,4
Ortszeit Stationsdruck (hPa) Tendenz (hPa in 3 Std.)
Do, 02.07. 15:00 917 - 0,1
Do, 02.07. 14:00 917 + 0,2
Do, 02.07. 13:00 917 0,0
Do, 02.07. 12:00 918 + 0,3
Do, 02.07. 11:00 917 + 0,7
Do, 02.07. 10:00 917 + 1,8
Ortszeit Schneehöhe (cm)
Do, 02.07. 14:00 -
Do, 02.07. 8:00 0
Do, 02.07. 2:00 -
Mi, 01.07. 20:00 -
Mi, 01.07. 14:00 -
Mi, 01.07. 8:00 -
Mi, 01.07. 2:00 -
Di, 30.06. 20:00 -
Ortszeit Schneehöhe (cm)
Do, 02.07. 15:00 -
Do, 02.07. 14:00 -
Do, 02.07. 13:00 -
Do, 02.07. 12:00 -
Do, 02.07. 11:00 -
Do, 02.07. 10:00 -
Link zu dieser Seite / Seite empfehlen

Das Wetter in ...